createdAt,value
2023-12-12T00:01:08.966Z,10.23
2023-12-12T00:03:35.854Z,8.80
2023-12-12T00:06:02.769Z,9.93
2023-12-12T00:08:29.649Z,9.25
2023-12-12T00:10:56.327Z,8.48
2023-12-12T00:13:23.024Z,9.27
2023-12-12T00:15:50.468Z,10.07
2023-12-12T00:18:17.618Z,8.88
2023-12-12T00:20:44.929Z,10.65
2023-12-12T00:23:11.704Z,10.32
2023-12-12T00:25:38.480Z,10.98
2023-12-12T00:28:05.923Z,9.40
2023-12-12T00:30:32.762Z,9.90
2023-12-12T00:32:59.603Z,9.30
2023-12-12T00:35:26.370Z,9.88
2023-12-12T00:37:53.318Z,10.05
2023-12-12T00:40:20.584Z,10.50
2023-12-12T00:42:47.423Z,9.23
2023-12-12T00:45:14.389Z,9.70
2023-12-12T00:47:41.163Z,10.48
2023-12-12T00:50:08.554Z,9.93
2023-12-12T00:52:36.003Z,9.80
2023-12-12T00:55:02.760Z,9.88
2023-12-12T00:57:29.771Z,9.43
2023-12-12T00:59:56.636Z,9.20
2023-12-12T01:02:26.598Z,8.70
2023-12-12T01:04:53.596Z,8.93
2023-12-12T01:07:20.561Z,8.52
2023-12-12T01:09:47.278Z,8.38
2023-12-12T01:12:14.046Z,9.10
2023-12-12T01:14:40.746Z,8.57
2023-12-12T01:17:07.530Z,8.70
2023-12-12T01:19:34.330Z,9.85
2023-12-12T01:22:01.177Z,9.35
2023-12-12T01:24:28.016Z,9.15
2023-12-12T01:26:54.715Z,9.90
2023-12-12T01:29:21.503Z,9.80
2023-12-12T01:31:48.157Z,9.10
2023-12-12T01:34:14.961Z,11.07
2023-12-12T01:36:41.876Z,10.80
2023-12-12T01:39:08.600Z,10.65
2023-12-12T01:41:35.439Z,9.53
2023-12-12T01:44:02.107Z,10.60
2023-12-12T01:46:28.899Z,10.38
2023-12-12T01:48:55.696Z,10.25
2023-12-12T01:51:22.546Z,10.00
2023-12-12T01:53:50.015Z,10.70
2023-12-12T01:56:16.947Z,10.52
2023-12-12T01:58:45.355Z,10.32
2023-12-12T02:01:12.165Z,9.77
2023-12-12T02:03:40.148Z,9.45
2023-12-12T02:06:07.198Z,9.20
2023-12-12T02:08:33.928Z,9.05
2023-12-12T02:11:00.724Z,10.05
2023-12-12T02:13:27.449Z,9.85
2023-12-12T02:15:54.296Z,8.60
2023-12-12T02:18:21.180Z,8.73
2023-12-12T02:20:47.977Z,8.10
2023-12-12T02:23:14.714Z,9.32
2023-12-12T02:25:41.464Z,9.90
2023-12-12T02:28:09.399Z,8.57
2023-12-12T02:30:36.324Z,8.40
2023-12-12T02:33:04.148Z,9.75
2023-12-12T02:35:32.328Z,9.60
2023-12-12T02:37:59.146Z,10.23
2023-12-12T02:40:26.050Z,9.93
2023-12-12T02:42:52.960Z,11.47
2023-12-12T02:45:19.831Z,10.13
2023-12-12T02:47:46.597Z,10.07
2023-12-12T02:50:13.548Z,10.02
2023-12-12T02:52:40.394Z,10.23
2023-12-12T02:55:07.488Z,9.20
2023-12-12T02:57:34.471Z,10.65
2023-12-12T03:00:01.394Z,10.45
2023-12-12T03:02:28.233Z,11.82
2023-12-12T03:04:55.426Z,12.32
2023-12-12T03:07:22.290Z,10.63
2023-12-12T03:09:50.977Z,10.88
2023-12-12T03:12:17.900Z,10.52
2023-12-12T03:14:44.621Z,9.60
2023-12-12T03:17:11.296Z,10.43
2023-12-12T03:19:38.120Z,10.00
2023-12-12T03:22:04.970Z,9.02
2023-12-12T03:24:31.860Z,9.73
2023-12-12T03:26:59.360Z,8.70
2023-12-12T03:29:26.078Z,9.32
2023-12-12T03:31:52.738Z,8.20
2023-12-12T03:34:19.864Z,9.07
2023-12-12T03:36:46.690Z,8.95
2023-12-12T03:39:13.599Z,8.57
2023-12-12T03:41:40.377Z,9.52
2023-12-12T03:44:07.119Z,9.23
2023-12-12T03:46:33.835Z,8.82
2023-12-12T03:49:00.623Z,9.30
2023-12-12T03:51:27.776Z,8.65
2023-12-12T03:53:54.476Z,9.23
2023-12-12T03:56:21.451Z,8.73
2023-12-12T03:58:48.443Z,9.32
2023-12-12T04:01:15.231Z,9.32
2023-12-12T04:03:42.070Z,8.68
2023-12-12T04:06:08.943Z,8.85
2023-12-12T04:08:36.535Z,8.57
2023-12-12T04:11:03.274Z,8.55
2023-12-12T04:13:30.275Z,8.40
2023-12-12T04:15:57.188Z,8.20
2023-12-12T04:18:24.027Z,7.68
2023-12-12T04:20:50.865Z,9.63
2023-12-12T04:23:17.535Z,8.38
2023-12-12T04:25:44.441Z,7.93
2023-12-12T04:28:11.212Z,8.77
2023-12-12T04:30:37.989Z,8.77
2023-12-12T04:33:04.708Z,8.77
2023-12-12T04:35:31.463Z,8.18
2023-12-12T04:37:59.942Z,9.18
2023-12-12T04:40:30.204Z,8.50
2023-12-12T04:42:57.057Z,9.65
2023-12-12T04:45:23.903Z,8.23
2023-12-12T04:47:50.904Z,9.32
2023-12-12T04:50:17.813Z,8.85
2023-12-12T04:52:44.545Z,9.35
2023-12-12T04:55:11.619Z,8.32
2023-12-12T04:57:38.342Z,8.47
2023-12-12T05:00:10.750Z,10.85
2023-12-12T05:02:37.496Z,7.65
2023-12-12T05:05:04.744Z,9.10
2023-12-12T05:07:31.708Z,7.88
2023-12-12T05:09:58.587Z,7.03
2023-12-12T05:12:26.140Z,7.65
2023-12-12T05:14:52.913Z,7.47
2023-12-12T05:17:19.749Z,6.57
2023-12-12T05:19:46.688Z,7.55
2023-12-12T05:22:13.664Z,6.57
2023-12-12T05:24:40.364Z,7.47
2023-12-12T05:27:07.115Z,7.35
2023-12-12T05:29:33.811Z,8.45
2023-12-12T05:32:00.635Z,8.32
2023-12-12T05:34:27.368Z,8.43
2023-12-12T05:36:54.172Z,8.40
2023-12-12T05:39:21.077Z,8.40
2023-12-12T05:41:49.743Z,7.95
2023-12-12T05:44:16.654Z,8.52
2023-12-12T05:46:43.736Z,8.57
2023-12-12T05:49:10.841Z,9.48
2023-12-12T05:51:41.177Z,13.10
2023-12-12T05:54:13.156Z,10.40
2023-12-12T05:56:40.173Z,9.93
2023-12-12T05:59:06.843Z,10.93
2023-12-12T06:01:33.692Z,10.32
2023-12-12T06:04:00.898Z,11.27
2023-12-12T06:06:27.793Z,10.10
2023-12-12T06:08:54.504Z,9.98
2023-12-12T06:11:22.639Z,11.13
2023-12-12T06:13:49.396Z,11.65
2023-12-12T06:16:18.364Z,10.00
2023-12-12T06:18:45.602Z,9.07
2023-12-12T06:21:12.675Z,8.57
2023-12-12T06:23:40.669Z,6.10
2023-12-12T06:26:07.420Z,8.52
2023-12-12T06:28:34.431Z,10.70
2023-12-12T06:31:01.276Z,12.30
2023-12-12T06:33:30.598Z,13.48
2023-12-12T06:35:58.225Z,11.13
2023-12-12T06:38:24.963Z,9.73
2023-12-12T06:40:51.721Z,9.52
2023-12-12T06:43:18.806Z,10.82
2023-12-12T06:45:45.624Z,9.35
2023-12-12T06:48:13.351Z,4.97
2023-12-12T06:50:40.164Z,6.47
2023-12-12T06:53:06.912Z,8.38
2023-12-12T06:55:33.644Z,7.85
2023-12-12T06:58:00.645Z,8.50
2023-12-12T07:00:27.343Z,8.87
2023-12-12T07:02:54.172Z,10.38
2023-12-12T07:05:20.925Z,12.50
2023-12-12T07:07:48.849Z,8.77
2023-12-12T07:10:17.426Z,9.10
2023-12-12T07:12:45.598Z,16.60
2023-12-12T07:15:12.985Z,10.70
2023-12-12T07:17:39.767Z,8.50
2023-12-12T07:20:07.090Z,10.10
2023-12-12T07:22:33.898Z,11.82
2023-12-12T07:25:01.273Z,18.00
2023-12-12T07:27:28.064Z,14.55
2023-12-12T07:29:54.767Z,10.73
2023-12-12T07:32:21.463Z,11.82
2023-12-12T07:34:48.185Z,11.00
2023-12-12T07:37:14.962Z,9.90
2023-12-12T07:39:41.773Z,9.60
2023-12-12T07:42:08.466Z,10.27
2023-12-12T07:44:35.177Z,14.63
2023-12-12T07:47:02.751Z,18.23
2023-12-12T07:49:30.288Z,12.33
2023-12-12T07:51:57.356Z,11.52
2023-12-12T07:54:24.039Z,10.65
2023-12-12T07:56:50.766Z,13.15
2023-12-12T07:59:18.796Z,13.80
2023-12-12T08:01:45.595Z,12.53
2023-12-12T08:04:12.622Z,12.48
2023-12-12T08:06:39.467Z,14.73
2023-12-12T08:09:06.810Z,18.08
2023-12-12T08:11:33.521Z,16.67
2023-12-12T08:14:01.498Z,11.07
2023-12-12T08:16:28.530Z,11.23
2023-12-12T08:18:55.426Z,11.63
2023-12-12T08:21:22.236Z,10.23
2023-12-12T08:23:50.101Z,10.25
2023-12-12T08:26:17.058Z,10.17
2023-12-12T08:28:44.053Z,9.35
2023-12-12T08:31:10.941Z,9.52
2023-12-12T08:33:37.928Z,9.07
2023-12-12T08:36:05.159Z,10.02
2023-12-12T08:38:31.925Z,10.17
2023-12-12T08:40:58.646Z,9.98
2023-12-12T08:43:25.675Z,11.90
2023-12-12T08:45:54.091Z,10.07
2023-12-12T08:48:21.067Z,9.30
2023-12-12T08:50:49.899Z,8.17
2023-12-12T08:53:17.030Z,7.60
2023-12-12T08:55:43.831Z,7.35
2023-12-12T08:58:12.079Z,5.95
2023-12-12T09:03:23.968Z,5.03
2023-12-12T09:05:50.903Z,5.90
2023-12-12T09:08:18.012Z,4.38
2023-12-12T09:10:44.745Z,9.57
2023-12-12T09:13:11.516Z,5.65
2023-12-12T09:15:38.207Z,4.37
2023-12-12T09:18:15.938Z,4.93
2023-12-12T09:20:46.790Z,6.88
2023-12-12T09:23:13.592Z,6.53
2023-12-12T09:25:40.927Z,6.93
2023-12-12T09:28:07.703Z,5.53
2023-12-12T09:30:34.384Z,4.30
2023-12-12T09:33:01.192Z,4.78
2023-12-12T09:35:27.986Z,3.50
2023-12-12T09:37:54.850Z,4.20
2023-12-12T09:40:21.602Z,3.60
2023-12-12T09:42:49.159Z,5.90
2023-12-12T09:45:16.332Z,3.22
2023-12-12T09:47:43.902Z,2.97
2023-12-12T09:50:11.748Z,3.10
2023-12-12T09:52:38.785Z,2.83
2023-12-12T09:55:06.716Z,2.78
2023-12-12T09:57:34.183Z,3.17
2023-12-12T10:00:01.325Z,4.07
2023-12-12T10:02:38.109Z,3.50
2023-12-12T10:05:14.021Z,2.93
2023-12-12T10:07:40.987Z,3.05
2023-12-12T10:10:11.493Z,2.50
2023-12-12T10:12:38.282Z,2.70
2023-12-12T10:15:21.257Z,2.70
2023-12-12T10:17:47.981Z,2.30
2023-12-12T10:20:15.411Z,2.63
2023-12-12T10:22:42.446Z,2.33
2023-12-12T10:25:13.248Z,2.50
2023-12-12T10:27:43.853Z,2.25
2023-12-12T10:30:14.484Z,2.03
2023-12-12T10:32:41.795Z,2.53
2023-12-12T10:35:08.938Z,3.00
2023-12-12T10:37:35.855Z,2.20
2023-12-12T10:40:32.210Z,2.83
2023-12-12T10:42:59.026Z,1.87
2023-12-12T10:45:25.742Z,2.08
2023-12-12T10:47:54.630Z,2.60
2023-12-12T10:50:21.483Z,2.45
2023-12-12T10:52:49.696Z,3.22
2023-12-12T10:55:17.477Z,2.40
2023-12-12T10:57:47.364Z,2.88
2023-12-12T11:00:19.587Z,2.58
2023-12-12T11:02:47.504Z,2.10
2023-12-12T11:05:15.771Z,2.40
2023-12-12T11:07:46.368Z,3.03
2023-12-12T11:10:14.818Z,2.85
2023-12-12T11:12:44.043Z,2.20
2023-12-12T11:15:10.920Z,2.35
2023-12-12T11:17:37.620Z,2.67
2023-12-12T11:20:18.545Z,2.53
2023-12-12T11:22:52.529Z,2.28
2023-12-12T11:25:23.760Z,2.03
2023-12-12T11:27:52.623Z,1.70
2023-12-12T11:30:20.453Z,2.15
2023-12-12T11:32:47.640Z,1.70
2023-12-12T11:35:30.429Z,2.70
2023-12-12T11:38:03.919Z,1.92
2023-12-12T11:40:30.855Z,1.30
2023-12-12T11:43:19.645Z,2.53
2023-12-12T11:45:46.508Z,2.60
2023-12-12T11:48:13.407Z,2.58
2023-12-12T11:50:40.584Z,1.60
2023-12-12T11:53:07.267Z,1.50
2023-12-12T11:55:34.372Z,2.17
2023-12-12T11:58:04.881Z,2.90
2023-12-12T12:00:38.850Z,2.08
2023-12-12T12:03:06.542Z,2.00
2023-12-12T12:05:33.657Z,2.13
2023-12-12T12:08:01.967Z,2.30
2023-12-12T12:10:28.820Z,2.30
2023-12-12T12:12:59.302Z,2.72
2023-12-12T12:15:26.497Z,2.90
2023-12-12T12:17:53.521Z,3.05
2023-12-12T12:20:20.405Z,2.38
2023-12-12T12:22:47.272Z,2.27
2023-12-12T12:25:14.202Z,2.30
2023-12-12T12:27:55.241Z,6.45
2023-12-12T12:30:23.761Z,3.63
2023-12-12T12:33:03.890Z,2.90
2023-12-12T12:35:31.211Z,2.97
2023-12-12T12:37:58.678Z,2.95
2023-12-12T12:40:38.999Z,3.00
2023-12-12T12:43:14.066Z,2.20
2023-12-12T12:45:40.871Z,2.50
2023-12-12T12:48:07.628Z,2.37
2023-12-12T12:50:34.389Z,2.10
2023-12-12T12:53:02.629Z,2.28
2023-12-12T12:55:29.328Z,2.08
2023-12-12T12:57:56.019Z,2.20
2023-12-12T13:00:22.691Z,2.00
2023-12-12T13:02:49.338Z,2.30
2023-12-12T13:05:18.788Z,2.50
2023-12-12T13:07:45.642Z,2.38
2023-12-12T13:10:12.705Z,2.70
2023-12-12T13:12:41.932Z,2.50
2023-12-12T13:15:09.185Z,2.53
2023-12-12T13:17:36.038Z,3.63
2023-12-12T13:20:10.345Z,4.20
2023-12-12T13:22:44.384Z,3.72
2023-12-12T13:25:11.870Z,4.00
2023-12-12T13:27:40.248Z,4.22
2023-12-12T13:30:11.362Z,5.57
2023-12-12T13:32:39.598Z,5.10
2023-12-12T13:35:15.557Z,5.35
2023-12-12T13:37:48.812Z,4.77
2023-12-12T13:40:15.626Z,5.18
2023-12-12T13:42:42.398Z,5.57
2023-12-12T13:45:10.033Z,5.88
2023-12-12T13:47:37.034Z,7.22
2023-12-12T13:50:04.814Z,15.37
2023-12-12T13:52:31.635Z,6.10
2023-12-12T13:54:58.887Z,6.68
2023-12-12T13:57:25.757Z,6.28
2023-12-12T13:59:52.434Z,6.13
2023-12-12T14:02:26.851Z,6.37
2023-12-12T14:05:02.673Z,6.25
2023-12-12T14:07:29.495Z,7.20
2023-12-12T14:09:56.245Z,7.05
2023-12-12T14:12:22.967Z,7.10
2023-12-12T14:14:49.798Z,6.53
2023-12-12T14:17:16.781Z,6.72
2023-12-12T14:19:43.839Z,7.32
2023-12-12T14:22:13.503Z,7.35
2023-12-12T14:24:41.159Z,6.55
2023-12-12T14:27:08.190Z,5.80
2023-12-12T14:29:35.460Z,6.65
2023-12-12T14:32:02.566Z,6.43
2023-12-12T14:34:29.604Z,5.53
2023-12-12T14:36:56.677Z,6.32
2023-12-12T14:39:23.578Z,6.63
2023-12-12T14:41:50.483Z,6.95
2023-12-12T14:44:17.261Z,7.97
2023-12-12T14:46:44.133Z,9.30
2023-12-12T14:49:10.976Z,8.70
2023-12-12T14:51:37.812Z,7.93
2023-12-12T14:54:08.904Z,7.50
2023-12-12T14:56:36.643Z,11.85
2023-12-12T14:59:04.195Z,9.43
2023-12-12T15:01:31.398Z,8.45
2023-12-12T15:03:59.154Z,8.53
2023-12-12T15:06:26.919Z,9.55
2023-12-12T15:08:53.709Z,25.25
2023-12-12T15:11:20.421Z,25.58
2023-12-12T15:13:47.076Z,25.17
2023-12-12T15:16:13.910Z,12.40
2023-12-12T15:18:41.094Z,13.25
2023-12-12T15:21:12.467Z,14.02
2023-12-12T15:23:40.889Z,13.57
2023-12-12T15:26:07.660Z,16.70
2023-12-12T15:28:34.484Z,15.20
2023-12-12T15:31:02.516Z,12.10
2023-12-12T15:33:32.177Z,11.52
2023-12-12T15:36:00.173Z,12.00
2023-12-12T15:38:27.339Z,14.63
2023-12-12T15:40:54.099Z,13.63
2023-12-12T15:43:20.950Z,14.55
2023-12-12T15:45:47.750Z,14.32
2023-12-12T15:48:14.611Z,12.57
2023-12-12T15:50:41.586Z,13.60
2023-12-12T15:53:08.619Z,13.13
2023-12-12T15:55:35.447Z,11.30
2023-12-12T15:58:02.971Z,10.85
2023-12-12T16:00:30.178Z,11.18
2023-12-12T16:02:57.894Z,11.00
2023-12-12T16:05:24.819Z,10.63
2023-12-12T16:07:51.644Z,11.15
2023-12-12T16:10:18.532Z,13.43
2023-12-12T16:12:45.399Z,13.55
2023-12-12T16:15:12.243Z,18.58
2023-12-12T16:17:39.696Z,14.13
2023-12-12T16:20:08.283Z,11.40
2023-12-12T16:22:37.079Z,10.75
2023-12-12T16:25:06.472Z,10.02
2023-12-12T16:27:33.849Z,10.15
2023-12-12T16:30:00.755Z,9.63
2023-12-12T16:32:27.475Z,10.57
2023-12-12T16:34:54.177Z,10.30
2023-12-12T16:37:20.972Z,9.85
2023-12-12T16:39:47.703Z,9.63
2023-12-12T16:42:16.016Z,8.10
2023-12-12T16:44:43.369Z,7.38
2023-12-12T16:47:10.888Z,9.30
2023-12-12T16:49:38.011Z,9.30
2023-12-12T16:52:05.019Z,9.90
2023-12-12T16:54:34.683Z,9.10
2023-12-12T16:57:01.638Z,9.05
2023-12-12T16:59:28.351Z,10.50
2023-12-12T17:01:57.818Z,10.15
2023-12-12T17:04:28.276Z,12.32
2023-12-12T17:06:55.469Z,12.47
2023-12-12T17:09:22.163Z,12.20
2023-12-12T17:11:48.965Z,13.52
2023-12-12T17:14:15.658Z,13.68
2023-12-12T17:16:44.977Z,14.05
2023-12-12T17:19:12.557Z,13.10
2023-12-12T17:21:39.608Z,13.90
2023-12-12T17:24:06.481Z,16.10
2023-12-12T17:26:33.222Z,14.00
2023-12-12T17:29:00.053Z,21.48
2023-12-12T17:31:26.912Z,19.83
2023-12-12T17:33:54.545Z,18.45
2023-12-12T17:36:21.284Z,15.05
2023-12-12T17:38:47.935Z,14.38
2023-12-12T17:41:17.754Z,14.60
2023-12-12T17:43:44.761Z,14.50
2023-12-12T17:46:11.704Z,14.38
2023-12-12T17:48:38.728Z,15.90
2023-12-12T17:51:05.901Z,14.18
2023-12-12T17:53:32.662Z,16.38
2023-12-12T17:56:02.376Z,14.20
2023-12-12T17:58:29.066Z,14.95
2023-12-12T18:00:55.821Z,14.35
2023-12-12T18:03:22.536Z,13.70
2023-12-12T18:05:49.635Z,14.23
2023-12-12T18:08:16.421Z,14.13
2023-12-12T18:10:43.236Z,20.63
2023-12-12T18:13:10.011Z,25.00
2023-12-12T18:15:36.958Z,24.52
2023-12-12T18:18:04.839Z,24.30
2023-12-12T18:20:31.691Z,18.97
2023-12-12T18:22:58.698Z,18.15
2023-12-12T18:25:25.847Z,20.00
2023-12-12T18:27:53.001Z,16.88
2023-12-12T18:30:26.187Z,17.67
2023-12-12T18:32:53.484Z,14.97
2023-12-12T18:35:20.477Z,14.18
2023-12-12T18:37:47.513Z,14.15
2023-12-12T18:40:22.260Z,15.25
2023-12-12T18:42:49.815Z,15.40
2023-12-12T18:45:17.278Z,12.60
2023-12-12T18:47:44.307Z,13.35
2023-12-12T18:50:11.971Z,13.25
2023-12-12T18:52:39.039Z,10.57
2023-12-12T18:55:06.567Z,9.75
2023-12-12T18:57:34.460Z,9.87
2023-12-12T19:00:02.660Z,10.55
2023-12-12T19:02:31.737Z,11.73
2023-12-12T19:05:00.554Z,10.93
2023-12-12T19:07:27.986Z,28.88
2023-12-12T19:09:56.459Z,33.67
2023-12-12T19:12:23.909Z,26.95
2023-12-12T19:14:51.403Z,19.17
2023-12-12T19:17:19.883Z,15.63
2023-12-12T19:19:47.710Z,13.52
2023-12-12T19:22:15.544Z,12.40
2023-12-12T19:24:43.415Z,13.82
2023-12-12T19:27:11.285Z,15.38
2023-12-12T19:29:38.912Z,15.82
2023-12-12T19:32:07.156Z,15.93
2023-12-12T19:34:35.115Z,13.37
2023-12-12T19:37:03.034Z,13.38
2023-12-12T19:39:30.649Z,14.18
2023-12-12T19:41:58.516Z,14.02
2023-12-12T19:44:26.256Z,15.15
2023-12-12T19:46:54.008Z,18.10
2023-12-12T19:49:22.041Z,19.35
2023-12-12T19:51:50.153Z,19.38
2023-12-12T19:54:18.421Z,16.88
2023-12-12T19:56:46.369Z,15.65
2023-12-12T19:59:14.181Z,17.17
2023-12-12T20:01:42.306Z,17.45
2023-12-12T20:04:10.771Z,17.10
2023-12-12T20:06:39.086Z,16.95
2023-12-12T20:09:07.418Z,17.92
2023-12-12T20:11:35.179Z,15.30
2023-12-12T20:14:03.283Z,15.80
2023-12-12T20:16:31.773Z,17.30
2023-12-12T20:19:00.405Z,17.50
2023-12-12T20:21:33.662Z,16.25
2023-12-12T20:24:02.203Z,13.47
2023-12-12T20:26:30.656Z,9.55
2023-12-12T20:28:59.305Z,8.75
2023-12-12T20:31:29.377Z,7.78
2023-12-12T20:33:57.900Z,8.00
2023-12-12T20:36:29.046Z,5.93
2023-12-12T20:39:02.887Z,7.30
2023-12-12T20:41:34.117Z,7.15
2023-12-12T20:44:03.948Z,6.82
2023-12-12T20:46:32.330Z,6.43
2023-12-12T20:49:00.389Z,6.00
2023-12-12T20:51:28.076Z,5.32
2023-12-12T20:53:55.821Z,5.47
2023-12-12T20:56:24.363Z,6.47
2023-12-12T20:58:52.380Z,8.13
2023-12-12T21:01:20.015Z,7.37
2023-12-12T21:03:48.939Z,7.20
2023-12-12T21:06:16.207Z,8.20
2023-12-12T21:08:43.051Z,7.63
2023-12-12T21:11:15.591Z,6.18
2023-12-12T21:13:42.375Z,6.90
2023-12-12T21:16:22.544Z,6.65
2023-12-12T21:18:49.717Z,6.57
2023-12-12T21:21:16.558Z,7.40
2023-12-12T21:23:43.254Z,7.55
2023-12-12T21:26:09.937Z,5.37
2023-12-12T21:28:36.832Z,5.72
2023-12-12T21:31:06.869Z,6.03
2023-12-12T21:33:33.965Z,6.32
2023-12-12T21:36:00.930Z,6.25
2023-12-12T21:38:29.015Z,4.83
2023-12-12T21:40:56.158Z,6.53
2023-12-12T21:43:22.895Z,6.13
2023-12-12T21:45:49.575Z,5.75
2023-12-12T21:48:16.334Z,6.30
2023-12-12T21:50:43.153Z,5.87
2023-12-12T21:53:10.524Z,5.63
2023-12-12T21:55:37.370Z,6.55
2023-12-12T21:58:05.496Z,6.60
2023-12-12T22:00:32.260Z,6.35
2023-12-12T22:02:58.986Z,6.40
2023-12-12T22:05:26.560Z,5.95
2023-12-12T22:07:53.577Z,6.65
2023-12-12T22:10:20.454Z,6.07
2023-12-12T22:12:47.895Z,7.53
2023-12-12T22:15:14.701Z,7.27
2023-12-12T22:17:41.422Z,7.57
2023-12-12T22:20:09.184Z,7.63
2023-12-12T22:22:38.152Z,8.18
2023-12-12T22:25:05.303Z,8.10
2023-12-12T22:27:32.384Z,6.63
2023-12-12T22:30:01.704Z,7.35
2023-12-12T22:32:28.697Z,8.07
2023-12-12T22:34:55.547Z,8.48
2023-12-12T22:37:22.259Z,7.22
2023-12-12T22:39:49.362Z,8.63
2023-12-12T22:42:16.324Z,7.70
2023-12-12T22:44:43.009Z,8.25
2023-12-12T22:47:09.726Z,9.20
2023-12-12T22:49:36.445Z,9.23
2023-12-12T22:52:03.266Z,7.57
2023-12-12T22:54:29.931Z,6.55
2023-12-12T22:56:56.716Z,6.80
2023-12-12T22:59:23.364Z,8.05
2023-12-12T23:01:50.124Z,9.15
2023-12-12T23:04:16.932Z,8.67
2023-12-12T23:06:43.703Z,8.98
2023-12-12T23:09:11.784Z,7.45
2023-12-12T23:11:38.821Z,8.38
2023-12-12T23:14:05.565Z,8.43
2023-12-12T23:16:34.271Z,8.17
2023-12-12T23:19:01.166Z,8.45
2023-12-12T23:21:27.966Z,8.20
2023-12-12T23:23:54.851Z,8.23
2023-12-12T23:26:21.554Z,9.60
2023-12-12T23:28:48.250Z,7.77
2023-12-12T23:31:15.061Z,8.38
2023-12-12T23:33:42.015Z,7.18
2023-12-12T23:36:09.193Z,7.78
2023-12-12T23:38:35.861Z,7.55
2023-12-12T23:41:03.491Z,8.67
2023-12-12T23:43:30.184Z,8.38
2023-12-12T23:45:56.863Z,8.88
2023-12-12T23:48:23.661Z,7.93
2023-12-12T23:50:50.403Z,7.55
2023-12-12T23:53:17.487Z,6.73
2023-12-12T23:55:44.326Z,7.78
2023-12-12T23:58:11.776Z,7.88
